Time;durP1;ratioP1;P1;durP2;ratioP2;P2;SDS_P1;SDS_P2;PMS_P1;PMS_P2;Temp;Humidity;BMP_temperature;BMP_pressure;BME280_temperature;BME280_humidity;BME280_pressure;Samples;Min_cycle;Max_cycle;Signal;HPM_P1;HPM_P2
2023/02/24 00:01:22;;;;;;;138.00;37.13;;;;;;;5.67;100.00;99087.25;5077503;28;20371;-60
2023/02/24 00:03:48;;;;;;;142.25;35.83;;;;;;;5.60;100.00;99075.84;5054297;28;20063;-60
2023/02/24 00:06:13;;;;;;;137.07;36.33;;;;;;;5.59;100.00;99080.34;5076588;28;20029;-60
2023/02/24 00:08:39;;;;;;;125.38;34.47;;;;;;;5.53;100.00;99080.38;5055353;28;20027;-60
2023/02/24 00:11:15;;;;;;;135.23;35.42;;;;;;;5.56;100.00;99085.25;5078442;28;20110;-60
2023/02/24 00:13:45;;;;;;;134.70;36.28;;;;;;;5.60;100.00;99081.97;5082065;28;20029;-60
2023/02/24 00:16:10;;;;;;;141.05;35.85;;;;;;;5.66;100.00;99074.97;5081610;28;20423;-60
2023/02/24 00:18:36;;;;;;;147.00;37.35;;;;;;;5.59;100.00;99080.34;5082417;28;20031;-60
2023/02/24 00:21:07;;;;;;;136.25;36.45;;;;;;;5.63;100.00;99078.06;5074931;28;20017;-60
2023/02/24 00:23:34;;;;;;;142.93;36.03;;;;;;;5.57;100.00;99070.94;5073007;28;20028;-60
2023/02/24 00:26:00;;;;;;;132.85;35.28;;;;;;;5.56;100.00;99074.63;5087174;28;20085;-60
2023/02/24 00:28:27;;;;;;;138.07;35.08;;;;;;;5.51;100.00;99072.59;5081315;28;20036;-60
2023/02/24 00:30:54;;;;;;;135.75;35.85;;;;;;;5.46;100.00;99063.63;5060653;28;20078;-61
2023/02/24 00:33:22;;;;;;;122.75;33.05;;;;;;;5.52;100.00;99068.13;5089770;28;20130;-60
2023/02/24 00:35:48;;;;;;;119.65;31.98;;;;;;;5.54;100.00;99066.03;5079778;28;20017;-60
2023/02/24 00:38:14;;;;;;;119.65;33.83;;;;;;;5.50;100.00;99056.88;5090911;28;20086;-60
2023/02/24 00:40:40;;;;;;;133.20;34.17;;;;;;;5.49;100.00;99057.88;5076346;28;20634;-60
2023/02/24 00:43:07;;;;;;;114.35;31.17;;;;;;;5.50;100.00;99055.03;5088890;28;20100;-60
2023/02/24 00:45:36;;;;;;;111.00;31.20;;;;;;;5.49;100.00;99058.72;5083677;28;20025;-60
2023/02/24 00:48:03;;;;;;;125.38;32.60;;;;;;;5.45;100.00;99048.72;5089922;28;20262;-60
2023/02/24 00:50:30;;;;;;;120.25;32.03;;;;;;;5.41;100.00;99043.81;5058510;28;20028;-60
2023/02/24 00:52:55;;;;;;;108.30;29.73;;;;;;;5.44;100.00;99037.25;5089715;28;20047;-60
2023/02/24 00:55:22;;;;;;;113.97;30.83;;;;;;;5.42;100.00;99042.00;5088034;28;20015;-60
2023/02/24 00:57:49;;;;;;;108.30;31.77;;;;;;;5.44;100.00;99033.78;5088025;28;20539;-60
2023/02/24 01:00:16;;;;;;;105.45;30.85;;;;;;;5.38;100.00;99025.66;5081867;28;20119;-60
2023/02/24 01:02:43;;;;;;;106.47;29.67;;;;;;;5.38;100.00;99019.53;5087702;28;20661;-60
2023/02/24 01:05:10;;;;;;;119.20;30.90;;;;;;;5.38;100.00;99019.53;5074496;28;20035;-60
2023/02/24 01:07:36;;;;;;;116.53;32.28;;;;;;;5.33;100.00;99022.81;5068410;28;20612;-60
2023/02/24 01:10:04;;;;;;;117.28;30.27;;;;;;;5.33;100.00;99006.88;5076993;28;20024;-61
2023/02/24 01:12:48;;;;;;;104.80;30.50;;;;;;;5.29;100.00;99015.47;5080582;28;20040;-60
2023/02/24 01:15:15;;;;;;;102.63;28.23;;;;;;;5.27;100.00;99007.75;5085587;28;20036;-59
2023/02/24 01:17:41;;;;;;;104.90;29.77;;;;;;;5.27;100.00;99007.75;5086254;28;20032;-60
2023/02/24 01:20:15;;;;;;;109.35;29.90;;;;;;;5.24;100.00;99005.50;5084713;28;20047;-60
2023/02/24 01:22:41;;;;;;;104.35;28.50;;;;;;;5.23;100.00;99011.84;5059259;28;20035;-60
2023/02/24 01:25:08;;;;;;;102.50;30.15;;;;;;;5.24;100.00;99007.34;5082694;28;20040;-60
2023/02/24 01:27:35;;;;;;;111.30;30.90;;;;;;;5.21;100.00;98997.94;5091154;28;20031;-60
2023/02/24 01:30:03;;;;;;;98.65;29.60;;;;;;;5.20;100.00;98996.31;5086031;28;20441;-60
2023/02/24 01:32:30;;;;;;;100.40;28.40;;;;;;;5.24;100.00;98992.22;5088280;28;20055;-59
2023/02/24 01:34:56;;;;;;;91.57;25.40;;;;;;;5.18;100.00;98991.22;5066326;28;20062;-60
2023/02/24 01:37:22;;;;;;;86.95;25.90;;;;;;;5.22;100.00;98983.66;5077340;28;20483;-59
2023/02/24 01:39:47;;;;;;;91.25;26.23;;;;;;;5.25;100.00;98988.53;5077716;28;20016;-59
2023/02/24 01:42:20;;;;;;;86.97;24.25;;;;;;;5.17;100.00;98981.63;5085599;28;20489;-60
2023/02/24 01:44:46;;;;;;;94.78;24.83;;;;;;;5.24;100.00;98976.28;5083527;28;20035;-59
2023/02/24 01:47:12;;;;;;;85.82;25.50;;;;;;;5.19;100.00;98968.94;5083000;28;20500;-60
2023/02/24 01:49:40;;;;;;;75.10;23.73;;;;;;;5.29;100.00;98971.13;5077153;28;20039;-60
2023/02/24 01:52:16;;;;;;;87.07;25.35;;;;;;;5.18;100.00;98961.19;5063941;28;20028;-59
2023/02/24 01:54:53;;;;;;;90.38;23.65;;;;;;;5.25;100.00;98961.94;5047469;28;20400;-59
2023/02/24 01:57:20;;;;;;;90.75;25.20;;;;;;;5.23;100.00;98961.34;5093440;28;20046;-60
2023/02/24 01:59:46;;;;;;;92.03;25.98;;;;;;;5.20;100.00;98951.16;5054535;28;20025;-60
2023/02/24 02:02:11;;;;;;;86.30;25.38;;;;;;;5.22;100.00;98951.75;5062906;28;20039;-59
2023/02/24 02:04:47;;;;;;;84.05;26.10;;;;;;;5.16;100.00;98949.94;5044734;28;20217;-60
2023/02/24 02:07:14;;;;;;;85.32;23.05;;;;;;;5.32;100.00;98945.97;5078636;28;20020;-60
2023/02/24 02:09:40;;;;;;;86.20;26.08;;;;;;;5.24;100.00;98949.72;5083956;28;20253;-59
2023/02/24 02:12:08;;;;;;;84.57;23.50;;;;;;;5.30;100.00;98943.53;5061191;28;20040;-60
2023/02/24 02:14:35;;;;;;;93.18;26.00;;;;;;;5.27;100.00;98949.28;5079175;28;20582;-60
2023/02/24 02:17:16;;;;;;;92.65;24.23;;;;;;;5.34;100.00;98944.72;5063091;28;20032;-59
2023/02/24 02:19:59;;;;;;;87.63;26.48;;;;;;;5.13;100.00;98937.91;5076403;28;20410;-59
2023/02/24 02:22:43;;;;;;;103.30;24.83;;;;;;;5.24;100.00;98941.75;5076243;28;20367;-59
2023/02/24 02:25:16;;;;;;;88.88;25.92;;;;;;;5.25;100.00;98945.19;5079381;28;20452;-60
2023/02/24 02:27:52;;;;;;;104.90;27.70;;;;;;;5.14;100.00;98941.38;5054968;28;20046;-60
2023/02/24 02:30:43;;;;;;;88.85;25.52;;;;;;;5.10;100.00;98937.53;5078481;28;20059;-59
2023/02/24 02:33:14;;;;;;;83.60;25.63;;;;;;;5.15;100.00;98938.50;5044158;28;20195;-59
2023/02/24 02:35:59;;;;;;;100.55;27.30;;;;;;;5.10;100.00;98934.88;5076696;28;20032;-60
2023/02/24 02:38:43;;;;;;;103.30;27.98;;;;;;;5.12;100.00;98938.13;5085760;28;20055;-60
2023/02/24 02:41:27;;;;;;;95.72;28.00;;;;;;;5.04;100.00;98931.25;5059351;28;20063;-60
2023/02/24 02:43:56;;;;;;;98.47;27.27;;;;;;;4.95;100.00;98930.66;5080180;28;20039;-59
2023/02/24 02:46:33;;;;;;;93.88;27.98;;;;;;;5.01;100.00;98928.97;5059204;28;20374;-60
2023/02/24 02:49:09;;;;;;;96.95;27.70;;;;;;;5.06;100.00;98926.50;5059015;28;20029;-60
2023/02/24 02:51:39;;;;;;;104.88;28.85;;;;;;;5.02;100.00;98921.81;5062916;28;20032;-59
2023/02/24 02:54:30;;;;;;;87.90;25.48;;;;;;;5.13;100.00;98926.47;5032594;28;20166;-59
2023/02/24 02:57:15;;;;;;;103.90;27.10;;;;;;;5.11;100.00;98928.53;5030652;28;20048;-59
2023/02/24 02:59:50;;;;;;;90.60;25.50;;;;;;;5.14;100.00;98918.28;5085233;28;20023;-59
2023/02/24 03:02:18;;;;;;;99.78;27.83;;;;;;;5.10;100.00;98921.59;5051039;28;20479;-60
2023/02/24 03:04:50;;;;;;;100.22;28.70;;;;;;;5.12;100.00;98919.53;5078470;28;20081;-60
2023/02/24 03:07:16;;;;;;;98.15;28.38;;;;;;;5.12;100.00;98908.91;5056980;28;20182;-59
2023/02/24 03:09:43;;;;;;;105.97;29.38;;;;;;;5.09;100.00;98911.97;5057291;28;20028;-60
2023/02/24 03:12:14;;;;;;;105.10;30.05;;;;;;;5.05;100.00;98908.13;5050484;28;20044;-60
2023/02/24 03:14:43;;;;;;;113.55;29.75;;;;;;;5.06;100.00;98899.13;5071991;28;20028;-60
2023/02/24 03:17:15;;;;;;;110.07;30.33;;;;;;;5.00;100.00;98906.13;5078926;28;20024;-60
2023/02/24 03:19:40;;;;;;;109.53;29.88;;;;;;;4.87;100.00;98901.72;5049904;28;20498;-60
2023/02/24 03:22:18;;;;;;;110.28;30.33;;;;;;;4.92;100.00;98893.91;5058716;28;20468;-60
2023/02/24 03:24:44;;;;;;;102.22;29.13;;;;;;;4.95;100.00;98893.47;5055427;28;20039;-62
2023/02/24 03:27:12;;;;;;;113.70;33.20;;;;;;;4.93;100.00;98882.25;5071098;28;20459;-60
2023/02/24 03:29:47;;;;;;;118.65;31.17;;;;;;;4.91;100.00;98886.97;5080018;28;20115;-60
2023/02/24 03:32:23;;;;;;;108.38;32.08;;;;;;;4.85;100.00;98866.56;5048619;28;20496;-60
2023/02/24 03:34:59;;;;;;;109.38;30.60;;;;;;;4.85;100.00;98877.19;5056068;28;20051;-60
2023/02/24 03:37:26;;;;;;;111.85;32.85;;;;;;;4.81;100.00;98864.56;5069945;28;20097;-60
2023/02/24 03:40:13;;;;;;;117.25;32.75;;;;;;;4.86;100.00;98870.03;5063402;28;20478;-60
2023/02/24 03:42:44;;;;;;;118.05;34.67;;;;;;;4.87;100.00;98869.03;5080347;28;20207;-58
2023/02/24 03:45:09;;;;;;;114.35;31.38;;;;;;;4.88;100.00;98862.69;5092738;28;20021;-58
2023/02/24 03:47:35;;;;;;;111.32;33.22;;;;;;;4.89;100.00;98857.16;5088565;28;20073;-61
2023/02/24 03:50:00;;;;;;;122.85;33.90;;;;;;;4.95;100.00;98856.28;5075474;28;20368;-60
2023/02/24 03:52:46;;;;;;;112.13;32.22;;;;;;;4.89;100.00;98846.53;5090483;28;20028;-61
2023/02/24 03:55:24;;;;;;;121.97;33.70;;;;;;;4.89;100.00;98857.16;5088341;28;20077;-58
2023/02/24 03:57:58;;;;;;;108.93;30.48;;;;;;;4.78;100.00;98849.88;5091635;28;20060;-61
2023/02/24 04:00:37;;;;;;;125.88;34.92;;;;;;;4.78;100.00;98849.88;5068569;28;20024;-58
2023/02/24 04:03:27;;;;;;;120.00;32.90;;;;;;;4.76;100.00;98844.75;5060724;28;20056;-60
2023/02/24 04:06:03;;;;;;;118.20;31.27;;;;;;;4.69;100.00;98845.84;5086313;28;20544;-61
2023/02/24 04:08:29;;;;;;;106.05;29.48;;;;;;;4.74;100.00;98843.34;5091090;28;20148;-60
2023/02/24 04:11:04;;;;;;;112.18;30.45;;;;;;;4.65;100.00;98837.50;5056813;28;20048;-60
2023/02/24 04:13:35;;;;;;;103.93;29.30;;;;;;;4.59;100.00;98840.19;5061685;28;20542;-60
2023/02/24 04:16:07;;;;;;;117.30;32.47;;;;;;;4.48;100.00;98837.16;5072216;28;20115;-60
2023/02/24 04:18:32;;;;;;;122.07;33.35;;;;;;;4.43;100.00;98831.69;5044644;28;20024;-60
2023/02/24 04:20:59;;;;;;;118.60;30.85;;;;;;;4.27;100.00;98829.53;5069832;28;20438;-60
2023/02/24 04:23:27;;;;;;;126.80;30.30;;;;;;;4.24;100.00;98832.59;5077752;28;20070;-59
2023/02/24 04:25:55;;;;;;;129.48;31.50;;;;;;;4.29;100.00;98830.97;5062601;28;20039;-60
2023/02/24 04:28:23;;;;;;;122.80;32.95;;;;;;;4.35;100.00;98823.97;5090529;28;20026;-60
2023/02/24 04:30:50;;;;;;;120.50;34.83;;;;;;;4.36;100.00;98816.84;5053444;28;20032;-60
2023/02/24 04:33:16;;;;;;;138.02;35.17;;;;;;;4.37;100.00;98821.09;5060310;28;20063;-60
2023/02/24 04:35:44;;;;;;;126.25;33.53;;;;;;;4.36;100.00;98820.28;5062215;28;20699;-60
2023/02/24 04:38:09;;;;;;;125.50;33.08;;;;;;;4.41;100.00;98817.00;5081578;28;20502;-61
2023/02/24 04:40:35;;;;;;;122.93;32.67;;;;;;;4.40;100.00;98826.81;5087150;28;20038;-60
2023/02/24 04:43:01;;;;;;;108.97;31.27;;;;;;;4.52;100.00;98819.81;5081276;28;20067;-60
2023/02/24 04:45:29;;;;;;;117.53;32.42;;;;;;;4.55;100.00;98821.22;5090023;28;20330;-60
2023/02/24 04:47:59;;;;;;;130.93;32.70;;;;;;;4.55;100.00;98818.56;5077729;28;20031;-61
2023/02/24 04:50:27;;;;;;;115.47;32.42;;;;;;;4.50;100.00;98811.25;5079932;28;20093;-60
2023/02/24 04:53:02;;;;;;;126.72;32.78;;;;;;;4.46;100.00;98810.03;5080991;28;20513;-60
2023/02/24 04:55:31;;;;;;;104.55;27.63;;;;;;;4.60;100.00;98807.31;5087286;28;20035;-60
2023/02/24 04:57:59;;;;;;;114.93;32.17;;;;;;;4.35;100.00;98797.44;5077681;28;20067;-61
2023/02/24 05:00:25;;;;;;;117.22;32.40;;;;;;;4.44;100.00;98801.50;5083835;28;20045;-60
2023/02/24 05:02:53;;;;;;;131.05;33.95;;;;;;;4.42;100.00;98792.94;5086903;28;20023;-60
2023/02/24 05:05:26;;;;;;;128.57;32.63;;;;;;;4.60;100.00;98789.53;5071272;28;20034;-60
2023/02/24 05:07:56;;;;;;;133.05;32.83;;;;;;;4.38;100.00;98794.38;5045067;28;20147;-60
2023/02/24 05:10:26;;;;;;;125.38;32.05;;;;;;;4.40;100.00;98789.66;5090650;28;20221;-60
2023/02/24 05:12:53;;;;;;;132.75;33.03;;;;;;;4.43;100.00;98791.88;5089275;28;20051;-60
2023/02/24 05:15:18;;;;;;;120.97;30.80;;;;;;;4.49;100.00;98788.41;5080056;28;20370;-60
2023/02/24 05:17:44;;;;;;;132.65;32.92;;;;;;;4.49;100.00;98783.09;5084900;28;20524;-60
2023/02/24 05:22:55;;;;;;;129.23;34.60;;;;;;;4.53;100.00;98784.25;5065366;28;20077;-60
2023/02/24 05:25:20;;;;;;;132.15;33.00;;;;;;;4.40;100.00;98775.59;5093395;28;20080;-60
2023/02/24 05:27:46;;;;;;;135.27;33.95;;;;;;;4.36;100.00;98777.84;5038946;28;20443;-60
2023/02/24 05:30:13;;;;;;;121.97;31.88;;;;;;;4.47;100.00;98777.19;5084642;28;20051;-60
2023/02/24 05:32:39;;;;;;;138.10;35.17;;;;;;;4.43;100.00;98773.31;5082190;28;20085;-63
2023/02/24 05:35:05;;;;;;;143.85;34.05;;;;;;;4.48;100.00;98786.75;5062550;28;20032;-61
2023/02/24 05:37:32;;;;;;;139.27;34.55;;;;;;;4.36;100.00;98771.72;5044154;28;20457;-60
2023/02/24 05:39:59;;;;;;;127.90;32.17;;;;;;;4.31;100.00;98772.34;5051641;28;20092;-60
2023/02/24 05:42:26;;;;;;;123.47;32.03;;;;;;;4.28;100.00;98764.84;5081158;28;20457;-60
2023/02/24 05:44:52;;;;;;;128.95;32.28;;;;;;;4.25;100.00;98775.88;5075688;28;20040;-60
2023/02/24 05:47:18;;;;;;;134.68;34.60;;;;;;;4.27;100.00;98769.31;5085215;28;20271;-60
2023/02/24 05:49:44;;;;;;;136.40;32.42;;;;;;;4.35;100.00;98762.97;5080619;28;20289;-60
2023/02/24 05:52:09;;;;;;;110.35;29.70;;;;;;;4.34;100.00;98763.97;5082482;28;20035;-60
2023/02/24 05:54:40;;;;;;;124.10;31.63;;;;;;;4.24;100.00;98758.31;5028890;28;20459;-60
2023/02/24 05:57:08;;;;;;;117.47;29.02;;;;;;;4.22;100.00;98760.34;5062111;28;20024;-60
2023/02/24 05:59:33;;;;;;;133.02;30.38;;;;;;;4.26;100.00;98764.22;5064311;28;20039;-60
2023/02/24 06:02:08;;;;;;;131.30;33.22;;;;;;;4.24;100.00;98758.31;5078419;28;20016;-60
2023/02/24 06:04:49;;;;;;;126.28;32.10;;;;;;;4.11;100.00;98751.25;5084834;28;20024;-60
2023/02/24 06:07:23;;;;;;;122.35;30.23;;;;;;;4.13;100.00;98745.75;5088836;28;20020;-60
2023/02/24 06:09:53;;;;;;;129.10;30.70;;;;;;;4.21;100.00;98748.94;5079911;28;20097;-60
2023/02/24 06:12:23;;;;;;;138.00;33.53;;;;;;;4.08;100.00;98751.69;5092070;28;20036;-60
2023/02/24 06:14:48;;;;;;;132.52;33.03;;;;;;;4.02;100.00;98755.16;5058308;28;20053;-60
2023/02/24 06:17:15;;;;;;;137.77;32.20;;;;;;;4.08;100.00;98744.53;5055412;28;20036;-60
2023/02/24 06:19:42;;;;;;;147.70;34.47;;;;;;;4.08;100.00;98749.84;5073965;28;20028;-60
2023/02/24 06:22:10;;;;;;;149.35;37.85;;;;;;;4.03;100.00;98747.00;5093180;28;20028;-60
2023/02/24 06:24:36;;;;;;;160.65;36.28;;;;;;;4.04;100.00;98753.94;5064526;28;20024;-60
2023/02/24 06:27:08;;;;;;;174.05;37.20;;;;;;;4.13;100.00;98757.16;5086646;28;20023;-60
2023/02/24 06:29:35;;;;;;;156.88;36.03;;;;;;;4.08;100.00;98762.28;5086493;28;20047;-60
2023/02/24 06:32:07;;;;;;;166.13;37.08;;;;;;;4.15;100.00;98754.31;5079932;28;20036;-60
2023/02/24 06:34:36;;;;;;;155.70;37.05;;;;;;;4.03;100.00;98762.91;5079555;28;20059;-60
2023/02/24 06:37:02;;;;;;;174.15;40.30;;;;;;;3.99;100.00;98755.59;5090605;28;20032;-60
2023/02/24 06:39:29;;;;;;;180.75;39.17;;;;;;;3.91;100.00;98759.28;5084893;28;20111;-60
2023/02/24 06:41:54;;;;;;;197.00;41.08;;;;;;;3.90;100.00;98755.03;5085349;28;20028;-60
2023/02/24 06:44:20;;;;;;;208.05;43.83;;;;;;;3.91;100.00;98756.63;5081050;28;20057;-60
2023/02/24 06:46:45;;;;;;;193.98;45.90;;;;;;;3.80;100.00;98752.81;5077821;28;20028;-60
2023/02/24 06:49:11;;;;;;;209.02;45.63;;;;;;;3.79;100.00;98753.81;5075855;28;20032;-60
2023/02/24 06:51:37;;;;;;;216.30;43.88;;;;;;;3.83;100.00;98759.53;5071098;28;20493;-60
2023/02/24 06:54:05;;;;;;;226.63;45.45;;;;;;;3.83;100.00;98763.00;5075608;28;20035;-60
2023/02/24 06:56:37;;;;;;;178.35;43.03;;;;;;;3.81;100.00;98754.44;5074798;28;20031;-60
2023/02/24 06:59:03;;;;;;;231.88;48.70;;;;;;;3.74;100.00;98752.84;5061610;28;20474;-60
2023/02/24 07:01:29;;;;;;;225.23;48.17;;;;;;;3.80;100.00;98752.81;5086190;28;20353;-60
2023/02/24 07:06:33;;;;;;;251.52;53.00;;;;;;;3.77;100.00;98747.09;5085567;28;20152;-60
2023/02/24 07:08:59;;;;;;;256.67;51.38;;;;;;;3.77;100.00;98747.09;5049502;28;20100;-60
2023/02/24 07:11:25;;;;;;;268.98;57.58;;;;;;;3.75;100.00;98747.34;5058443;28;20087;-62
2023/02/24 07:13:52;;;;;;;287.73;61.90;;;;;;;3.68;100.00;98741.25;5071512;28;20028;-61
2023/02/24 07:16:23;;;;;;;276.95;56.03;;;;;;;3.72;100.00;98746.94;5076734;28;20466;-60
2023/02/24 07:18:55;;;;;;;293.63;58.60;;;;;;;3.67;100.00;98747.56;5080236;28;20024;-60
2023/02/24 07:21:22;;;;;;;262.80;52.35;;;;;;;3.67;100.00;98737.78;5084258;28;20034;-62
2023/02/24 07:23:48;;;;;;;269.95;50.55;;;;;;;3.68;100.00;98738.59;5077316;28;20158;-61
2023/02/24 07:26:18;;;;;;;259.73;49.67;;;;;;;3.62;100.00;98732.31;5075594;28;20066;-61
2023/02/24 07:28:44;;;;;;;244.80;49.43;;;;;;;3.64;100.00;98740.88;5064350;28;20028;-59
2023/02/24 07:31:11;;;;;;;235.07;48.58;;;;;;;3.67;100.00;98737.78;5078359;28;20488;-61
2023/02/24 07:33:43;;;;;;;235.00;48.65;;;;;;;3.66;100.00;98730.03;5065305;28;20413;-59
2023/02/24 07:36:13;;;;;;;238.45;50.28;;;;;;;3.63;100.00;98725.16;5082278;28;20115;-58
2023/02/24 07:38:41;;;;;;;248.63;47.20;;;;;;;3.62;100.00;98721.69;5060567;28;20145;-59
2023/02/24 07:41:09;;;;;;;219.52;45.08;;;;;;;3.54;100.00;98723.75;5086514;28;20072;-59
2023/02/24 07:43:37;;;;;;;231.50;48.63;;;;;;;3.63;100.00;98720.66;5070011;28;20161;-60
2023/02/24 07:46:13;;;;;;;243.40;47.53;;;;;;;3.62;100.00;98712.91;5066122;28;20020;-59
2023/02/24 07:48:40;;;;;;;188.52;38.05;;;;;;;3.62;100.00;98713.75;5085138;28;20039;-62
2023/02/24 07:51:07;;;;;;;212.77;40.13;;;;;;;3.71;100.00;98718.81;5090382;28;20044;-59
2023/02/24 07:53:32;;;;;;;196.05;44.55;;;;;;;3.90;100.00;98720.56;5082019;28;20024;-61
2023/02/24 07:55:58;;;;;;;198.82;48.30;;;;;;;4.17;100.00;98718.59;5082555;28;20197;-60
2023/02/24 07:58:23;;;;;;;192.10;44.85;;;;;;;4.08;100.00;98717.19;5075531;28;20098;-60
2023/02/24 08:00:58;;;;;;;134.32;34.25;;;;;;;4.01;100.00;98711.91;5060858;28;20479;-60
2023/02/24 08:03:26;;;;;;;128.00;30.60;;;;;;;4.05;100.00;98718.44;5068816;28;20425;-61
2023/02/24 08:05:59;;;;;;;116.47;27.33;;;;;;;4.14;100.00;98715.53;5083549;28;20024;-60
2023/02/24 08:08:24;;;;;;;107.97;28.77;;;;;;;4.34;100.00;98708.25;5089618;28;20025;-60
2023/02/24 08:10:55;;;;;;;123.88;29.13;;;;;;;4.31;100.00;98716.66;5087185;28;20117;-60
2023/02/24 08:13:20;;;;;;;117.60;31.25;;;;;;;4.34;100.00;98708.25;5080047;28;20070;-60
2023/02/24 08:15:55;;;;;;;109.25;26.77;;;;;;;4.20;100.00;98704.06;5093218;28;20028;-61
2023/02/24 08:18:20;;;;;;;105.60;29.83;;;;;;;4.08;100.00;98699.44;5083926;28;20049;-60
2023/02/24 08:20:51;;;;;;;115.43;26.35;;;;;;;4.23;100.00;98695.69;5088235;28;20036;-60
2023/02/24 08:23:22;;;;;;;104.90;24.45;;;;;;;4.40;100.00;98694.13;5082103;28;20442;-60
2023/02/24 08:25:47;;;;;;;;;;;;;;;4.48;100.00;98691.22;5093199;28;20641;-60
2023/02/24 08:28:12;;;;;;;76.65;23.05;;;;;;;4.35;100.00;98686.00;5087957;28;20296;-60
2023/02/24 08:30:43;;;;;;;88.82;21.67;;;;;;;4.61;100.00;98684.19;5089433;28;20478;-60
2023/02/24 08:33:14;;;;;;;76.70;18.55;;;;;;;4.69;100.00;98686.56;5081325;28;20040;-60
2023/02/24 08:35:43;;;;;;;71.55;16.42;;;;;;;4.88;100.00;98682.91;5088139;28;20397;-60
2023/02/24 08:38:18;;;;;;;59.42;16.85;;;;;;;5.38;100.00;98680.16;5082151;28;20463;-60
2023/02/24 08:40:49;;;;;;;74.47;21.15;;;;;;;5.56;99.03;98681.16;5071974;28;20028;-60
2023/02/24 08:43:33;;;;;;;58.15;16.58;;;;;;;5.08;100.00;98684.56;5077851;28;20508;-60
2023/02/24 08:46:19;;;;;;;70.60;16.95;;;;;;;5.33;98.53;98673.88;5077335;28;20036;-60
2023/02/24 08:48:49;;;;;;;69.85;15.90;;;;;;;5.35;98.59;98669.97;5079570;28;20060;-60
2023/02/24 08:51:22;;;;;;;62.25;15.02;;;;;;;5.41;96.61;98669.06;5053557;28;20032;-60
2023/02/24 08:53:52;;;;;;;57.40;17.55;;;;;;;5.61;95.92;98673.31;5085201;28;20103;-60
2023/02/24 08:56:22;;;;;;;68.13;25.58;;;;;;;5.66;96.07;98659.38;5079716;28;20023;-60
2023/02/24 08:59:04;;;;;;;72.20;23.98;;;;;;;5.38;96.27;98664.19;5042287;28;20029;-60
2023/02/24 09:01:33;;;;;;;50.28;14.43;;;;;;;5.31;95.93;98657.34;5073887;28;20031;-59
2023/02/24 09:04:00;;;;;;;61.77;18.40;;;;;;;5.69;95.26;98657.09;5075162;28;20358;-59
2023/02/24 09:06:33;;;;;;;52.78;16.73;;;;;;;6.52;91.41;98644.84;5084415;28;20025;-59
2023/02/24 09:09:20;;;;;;;45.25;12.77;;;;;;;6.92;89.05;98646.81;5084937;28;20032;-60
2023/02/24 09:11:49;;;;;;;49.20;13.75;;;;;;;7.08;87.95;98643.44;5091563;28;20048;-59
2023/02/24 09:14:19;;;;;;;44.42;11.90;;;;;;;6.86;88.79;98642.41;5090145;28;20093;-60
2023/02/24 09:17:01;;;;;;;41.63;11.90;;;;;;;6.55;89.00;98636.38;5073106;28;20044;-60
2023/02/24 09:22:31;;;;;;;40.92;11.43;;;;;;;5.97;92.35;98629.13;5067781;28;20335;-59
2023/02/24 09:25:16;;;;;;;28.60;10.50;;;;;;;6.13;92.47;98631.13;5082005;28;20043;-60
2023/02/24 09:27:51;;;;;;;38.40;10.75;;;;;;;6.33;92.47;98633.47;5084583;28;20050;-59
2023/02/24 09:30:35;;;;;;;36.13;10.68;;;;;;;6.24;90.06;98625.03;5085384;28;20486;-59
2023/02/24 09:33:04;;;;;;;41.63;10.35;;;;;;;6.28;88.23;98614.72;5078193;28;20063;-59
2023/02/24 09:35:30;;;;;;;38.30;11.20;;;;;;;6.80;87.29;98616.72;5074130;28;20115;-59
2023/02/24 09:37:59;;;;;;;30.38;9.05;;;;;;;7.12;83.82;98609.94;5060345;28;20189;-59
2023/02/24 09:40:38;;;;;;;39.22;14.70;;;;;;;6.72;83.85;98593.09;5074448;28;20046;-59
2023/02/24 09:43:39;;;;;;;36.47;10.67;;;;;;;7.47;82.92;98585.06;5061073;28;20277;-60
2023/02/24 09:46:14;;;;;;;31.77;9.65;;;;;;;7.42;82.35;98590.28;5061343;28;21285;-59
2023/02/24 09:48:44;;;;;;;34.08;10.40;;;;;;;7.97;79.44;98579.00;5059251;28;20074;-59
2023/02/24 09:51:20;;;;;;;37.65;10.10;;;;;;;7.76;78.73;98587.69;5072744;28;20386;-59
2023/02/24 09:53:51;;;;;;;36.15;11.15;;;;;;;7.15;81.22;98575.88;5072739;28;20029;-59
2023/02/24 09:56:22;;;;;;;26.73;9.48;;;;;;;8.17;79.42;98577.72;5061347;28;20024;-58
2023/02/24 09:59:13;;;;;;;29.90;10.13;;;;;;;7.83;76.97;98566.22;5081623;28;20024;-61
2023/02/24 10:01:41;;;;;;;;;;;;;;;7.46;78.67;98563.94;5069255;28;20789;-58
2023/02/24 10:04:21;;;;;;;31.77;9.52;;;;;;;7.84;78.21;98568.66;5076441;28;19928;-60
2023/02/24 10:06:58;;;;;;;28.83;9.55;;;;;;;7.60;79.59;98570.63;5084003;28;20036;-59
2023/02/24 10:09:35;;;;;;;32.53;12.20;;;;;;;7.85;81.01;98554.25;5059491;28;20039;-60
2023/02/24 10:12:06;;;;;;;29.08;10.20;;;;;;;8.00;78.18;98556.38;5055955;28;20052;-60
2023/02/24 10:14:42;;;;;;;28.13;10.00;;;;;;;7.93;79.35;98551.19;5055716;28;20024;-60
2023/02/24 10:17:22;;;;;;;26.45;9.38;;;;;;;8.20;77.24;98540.66;5063420;28;20442;-60
2023/02/24 10:19:59;;;;;;;26.27;8.98;;;;;;;7.41;80.08;98540.66;5060374;28;20144;-60
2023/02/24 10:22:39;;;;;;;27.58;10.35;;;;;;;6.97;80.94;98537.69;5038170;28;20279;-59
2023/02/24 10:25:35;;;;;;;28.67;10.20;;;;;;;7.44;83.95;98532.22;5054316;28;20107;-59
2023/02/24 10:28:35;;;;;;;27.30;9.05;;;;;;;9.32;75.54;98529.88;5064317;28;20040;-59
2023/02/24 10:31:23;;;;;;;26.52;9.07;;;;;;;10.09;70.99;98517.19;5053378;28;20580;-59
2023/02/24 10:33:49;;;;;;;26.38;10.43;;;;;;;9.77;70.36;98528.72;5061009;28;20562;-59
2023/02/24 10:36:17;;;;;;;26.10;10.27;;;;;;;9.47;70.25;98531.91;5045568;28;20033;-60
2023/02/24 10:38:44;;;;;;;30.52;10.13;;;;;;;9.37;73.64;98531.78;5053548;28;20032;-59
2023/02/24 10:41:09;;;;;;;28.73;10.15;;;;;;;9.32;73.50;98529.06;5059230;28;20052;-59
2023/02/24 10:43:44;;;;;;;25.67;10.13;;;;;;;9.18;72.40;98526.75;5063776;28;20534;-59
2023/02/24 10:46:19;;;;;;;25.40;9.35;;;;;;;9.11;73.62;98523.50;5071664;28;20437;-59
2023/02/24 10:49:01;;;;;;;28.83;10.68;;;;;;;9.10;73.00;98507.69;5050364;28;20053;-59
2023/02/24 10:51:41;;;;;;;26.67;10.13;;;;;;;9.29;72.19;98517.81;5058170;28;20024;-59
2023/02/24 10:54:32;;;;;;;25.85;9.65;;;;;;;9.19;72.99;98512.34;5059886;28;20396;-59
2023/02/24 10:57:06;;;;;;;24.65;9.35;;;;;;;8.62;75.86;98494.03;5054614;28;20040;-59
2023/02/24 11:00:18;;;;;;;19.88;8.50;;;;;;;8.55;74.97;98494.19;5067813;28;20342;-59
2023/02/24 11:03:07;;;;;;;20.48;8.73;;;;;;;8.63;73.57;98495.63;5060516;28;20044;-59
2023/02/24 11:06:06;;;;;;;17.65;8.18;;;;;;;8.61;74.50;98498.56;5062001;28;20365;-60
2023/02/24 11:11:24;;;;;;;22.83;8.95;;;;;;;8.51;72.60;98482.41;5060572;28;20050;-60
2023/02/24 11:19:35;;;;;;;16.77;6.90;;;;;;;8.56;69.71;98468.28;5056297;28;20576;-60
2023/02/24 11:22:00;;;;;;;16.98;7.63;;;;;;;8.63;69.66;98461.72;5050308;28;20033;-61
2023/02/24 11:24:26;;;;;;;15.43;7.40;;;;;;;8.55;68.68;98462.16;5058834;28;20024;-60
2023/02/24 11:26:52;;;;;;;14.73;6.60;;;;;;;8.42;69.02;98451.84;5054224;28;20033;-60
2023/02/24 11:29:55;;;;;;;15.55;7.20;;;;;;;8.73;68.68;98453.00;5051297;28;20056;-60
2023/02/24 11:32:29;;;;;;;17.67;7.82;;;;;;;8.42;72.03;98441.16;5049936;28;21778;-60
2023/02/24 11:35:26;;;;;;;19.38;8.35;;;;;;;8.60;72.87;98434.69;5057785;28;20033;-60
2023/02/24 11:38:08;;;;;;;19.65;8.00;;;;;;;8.77;72.66;98432.78;5032027;28;20051;-60
2023/02/24 11:40:37;;;;;;;18.15;7.53;;;;;;;8.87;72.51;98431.28;5045067;28;20059;-60
2023/02/24 11:43:17;;;;;;;16.05;7.25;;;;;;;8.58;72.41;98428.78;5059899;28;20028;-60
2023/02/24 11:46:01;;;;;;;16.27;6.97;;;;;;;8.76;66.77;98425.00;5054872;28;20035;-60
2023/02/24 11:48:34;;;;;;;14.13;6.40;;;;;;;8.61;64.29;98412.25;5041688;28;20390;-60
2023/02/24 11:51:12;;;;;;;13.38;5.97;;;;;;;9.02;62.84;98410.06;5062769;28;20029;-60
2023/02/24 11:53:48;;;;;;;11.88;5.45;;;;;;;9.38;59.46;98400.47;5038648;28;20037;-60